createdAt,value
2019-05-23T00:01:26.421Z,8.30
2019-05-23T00:04:07.572Z,8.30
2019-05-23T00:06:39.575Z,8.29
2019-05-23T00:09:11.232Z,8.25
2019-05-23T00:12:00.657Z,8.25
2019-05-23T00:14:44.236Z,8.22
2019-05-23T00:17:20.862Z,8.23
2019-05-23T00:19:52.509Z,8.21
2019-05-23T00:22:23.020Z,8.19
2019-05-23T00:24:55.904Z,8.11
2019-05-23T00:27:26.601Z,8.12
2019-05-23T00:29:58.990Z,8.09
2019-05-23T00:32:46.988Z,8.09
2019-05-23T00:35:19.991Z,8.02
2019-05-23T00:37:52.039Z,8.03
2019-05-23T00:40:23.067Z,8.00
2019-05-23T00:42:53.658Z,7.99
2019-05-23T00:45:25.454Z,7.91
2019-05-23T00:47:57.253Z,7.76
2019-05-23T00:50:30.168Z,7.53
2019-05-23T00:53:00.707Z,7.32
2019-05-23T00:55:31.503Z,7.24
2019-05-23T00:58:02.969Z,7.13
2019-05-23T01:00:35.192Z,7.05
2019-05-23T01:03:06.823Z,7.02
2019-05-23T01:05:38.487Z,7.01
2019-05-23T01:08:09.024Z,6.96
2019-05-23T01:10:39.573Z,7.00
2019-05-23T01:13:11.317Z,7.25
2019-05-23T01:15:43.483Z,7.28
2019-05-23T01:18:14.232Z,7.38
2019-05-23T01:20:56.141Z,7.38
2019-05-23T01:23:27.570Z,7.49
2019-05-23T01:25:58.696Z,7.56
2019-05-23T01:28:29.828Z,7.65
2019-05-23T01:31:03.902Z,7.64
2019-05-23T01:33:35.536Z,7.70
2019-05-23T01:36:06.702Z,7.67
2019-05-23T01:38:38.997Z,7.67
2019-05-23T01:41:11.334Z,7.71
2019-05-23T01:43:42.544Z,7.72
2019-05-23T01:46:13.578Z,7.79
2019-05-23T01:48:44.986Z,7.71
2019-05-23T01:51:16.687Z,7.77
2019-05-23T01:53:47.992Z,7.78
2019-05-23T01:56:18.474Z,7.81
2019-05-23T01:58:49.087Z,7.77
2019-05-23T02:01:21.068Z,7.80
2019-05-23T02:03:52.653Z,7.80
2019-05-23T02:06:23.681Z,7.79
2019-05-23T02:08:54.545Z,7.81
2019-05-23T02:11:25.151Z,7.77
2019-05-23T02:13:56.382Z,7.76
2019-05-23T02:16:28.351Z,7.75
2019-05-23T02:18:58.911Z,7.71
2019-05-23T02:21:30.703Z,7.70
2019-05-23T02:24:02.315Z,7.59
2019-05-23T02:26:33.722Z,7.66
2019-05-23T02:29:05.133Z,7.64
2019-05-23T02:31:36.418Z,7.63
2019-05-23T02:34:08.664Z,7.62
2019-05-23T02:36:39.633Z,7.60
2019-05-23T02:39:30.834Z,7.54
2019-05-23T02:42:19.392Z,7.54
2019-05-23T02:44:50.571Z,7.51
2019-05-23T02:47:38.959Z,7.55
2019-05-23T02:50:17.074Z,7.54
2019-05-23T02:52:53.550Z,7.58
2019-05-23T02:55:30.999Z,7.55
2019-05-23T02:58:11.995Z,7.56
2019-05-23T03:01:06.277Z,7.51
2019-05-23T03:03:37.647Z,7.51
2019-05-23T03:06:15.074Z,7.58
2019-05-23T03:08:47.571Z,7.62
2019-05-23T03:11:45.706Z,7.61
2019-05-23T03:14:19.183Z,7.57
2019-05-23T03:16:54.490Z,7.53
2019-05-23T03:19:42.634Z,7.49
2019-05-23T03:22:49.070Z,7.54
2019-05-23T03:26:18.843Z,7.53
2019-05-23T03:28:50.194Z,7.47
2019-05-23T03:31:33.447Z,7.49
2019-05-23T03:34:05.637Z,7.57
2019-05-23T03:36:37.490Z,7.61
2019-05-23T03:39:09.644Z,7.64
2019-05-23T03:41:40.995Z,7.68
2019-05-23T03:44:12.007Z,7.74
2019-05-23T03:46:49.456Z,7.75
2019-05-23T03:49:21.061Z,7.77
2019-05-23T03:51:54.747Z,7.74
2019-05-23T03:54:27.862Z,7.74
2019-05-23T03:56:59.506Z,7.75
2019-05-23T03:59:31.459Z,7.79
2019-05-23T04:02:04.118Z,7.80
2019-05-23T04:04:34.660Z,7.80
2019-05-23T04:07:07.432Z,7.82
2019-05-23T04:09:37.997Z,7.89
2019-05-23T04:12:09.075Z,7.88
2019-05-23T04:14:39.742Z,8.00
2019-05-23T04:17:10.932Z,7.99
2019-05-23T04:19:41.438Z,8.00
2019-05-23T04:22:11.951Z,7.99
2019-05-23T04:24:42.523Z,8.04
2019-05-23T04:27:13.028Z,8.16
2019-05-23T04:29:43.710Z,8.18
2019-05-23T04:32:14.994Z,8.23
2019-05-23T04:34:45.852Z,8.28
2019-05-23T04:37:16.541Z,8.30
2019-05-23T04:39:47.363Z,8.30
2019-05-23T04:42:17.965Z,8.31
2019-05-23T04:44:48.546Z,8.34
2019-05-23T04:47:19.828Z,8.36
2019-05-23T04:49:50.621Z,8.38
2019-05-23T04:52:21.825Z,8.40
2019-05-23T04:54:55.029Z,8.37
2019-05-23T04:57:27.135Z,8.42
2019-05-23T04:59:57.739Z,8.49
2019-05-23T05:02:30.214Z,8.53
2019-05-23T05:05:00.944Z,8.60
2019-05-23T05:07:31.566Z,8.70
2019-05-23T05:10:02.556Z,8.71
2019-05-23T05:12:33.072Z,8.75
2019-05-23T05:15:03.592Z,8.87
2019-05-23T05:17:34.250Z,8.88
2019-05-23T05:20:05.890Z,8.90
2019-05-23T05:22:36.380Z,8.93
2019-05-23T05:25:08.736Z,8.98
2019-05-23T05:27:39.198Z,9.03
2019-05-23T05:30:11.547Z,9.10
2019-05-23T05:32:45.291Z,9.15
2019-05-23T05:35:14.339Z,9.20
2019-05-23T05:37:44.853Z,9.33
2019-05-23T05:40:18.400Z,9.31
2019-05-23T05:42:49.661Z,9.30
2019-05-23T05:45:20.706Z,9.47
2019-05-23T05:47:51.328Z,9.54
2019-05-23T05:50:23.561Z,9.53
2019-05-23T05:52:54.750Z,9.64
2019-05-23T05:55:25.626Z,9.72
2019-05-23T05:57:56.225Z,9.86
2019-05-23T06:00:39.932Z,9.82
2019-05-23T06:03:11.139Z,9.95
2019-05-23T06:05:55.235Z,9.96
2019-05-23T06:08:26.128Z,10.05
2019-05-23T06:10:57.197Z,10.16
2019-05-23T06:13:27.865Z,10.25
2019-05-23T06:15:58.693Z,10.30
2019-05-23T06:18:29.609Z,10.41
2019-05-23T06:21:01.569Z,10.54
2019-05-23T06:23:33.394Z,10.64
2019-05-23T06:26:04.168Z,10.68
2019-05-23T06:28:34.712Z,10.72
2019-05-23T06:31:05.622Z,10.80
2019-05-23T06:33:36.955Z,10.95
2019-05-23T06:36:07.850Z,10.93
2019-05-23T06:38:39.038Z,11.16
2019-05-23T06:41:10.159Z,11.26
2019-05-23T06:43:40.940Z,11.30
2019-05-23T06:46:11.839Z,11.37
2019-05-23T06:48:45.711Z,11.52
2019-05-23T06:51:14.725Z,11.59
2019-05-23T06:53:45.787Z,11.64
2019-05-23T06:56:16.508Z,11.78
2019-05-23T06:58:47.146Z,11.86
2019-05-23T07:01:17.679Z,12.00
2019-05-23T07:03:48.275Z,12.14
2019-05-23T07:06:23.368Z,12.11
2019-05-23T07:08:54.418Z,12.16
2019-05-23T07:11:26.774Z,12.27
2019-05-23T07:13:57.654Z,12.35
2019-05-23T07:16:28.268Z,12.34
2019-05-23T07:18:58.948Z,12.48
2019-05-23T07:21:30.602Z,12.63
2019-05-23T07:24:01.747Z,12.63
2019-05-23T07:26:32.534Z,12.78
2019-05-23T07:29:03.538Z,12.84
2019-05-23T07:31:35.696Z,12.96
2019-05-23T07:34:06.407Z,13.18
2019-05-23T07:36:37.808Z,13.29
2019-05-23T07:39:11.606Z,13.29
2019-05-23T07:41:42.686Z,13.23
2019-05-23T07:44:13.281Z,13.32
2019-05-23T07:46:44.170Z,13.38
2019-05-23T07:49:14.748Z,13.48
2019-05-23T07:51:45.561Z,13.51
2019-05-23T07:54:51.505Z,13.52
2019-05-23T07:57:21.986Z,13.64
2019-05-23T07:59:52.908Z,13.70
2019-05-23T08:02:34.297Z,13.86
2019-05-23T08:05:07.014Z,14.02
2019-05-23T08:07:37.606Z,14.13
2019-05-23T08:10:10.774Z,14.25
2019-05-23T08:12:41.826Z,14.32
2019-05-23T08:15:15.451Z,14.30
2019-05-23T08:17:46.189Z,14.41
2019-05-23T08:20:17.017Z,14.55
2019-05-23T08:22:48.062Z,14.60
2019-05-23T08:25:18.554Z,14.58
2019-05-23T08:27:49.471Z,14.66
2019-05-23T08:30:20.973Z,14.89
2019-05-23T08:32:51.708Z,14.99
2019-05-23T08:35:22.954Z,15.00
2019-05-23T08:37:54.866Z,15.09
2019-05-23T08:40:27.041Z,15.09
2019-05-23T08:42:57.535Z,15.14
2019-05-23T08:45:28.078Z,15.14
2019-05-23T08:47:58.710Z,15.17
2019-05-23T08:50:30.568Z,15.25
2019-05-23T08:53:01.249Z,15.33
2019-05-23T08:55:33.359Z,15.43
2019-05-23T08:58:05.525Z,15.62
2019-05-23T09:00:38.214Z,15.62
2019-05-23T09:03:10.309Z,15.61
2019-05-23T09:05:41.628Z,15.66
2019-05-23T09:08:16.776Z,15.67
2019-05-23T09:10:46.144Z,15.67
2019-05-23T09:13:16.794Z,15.67
2019-05-23T09:15:53.062Z,15.73
2019-05-23T09:18:19.830Z,15.90
2019-05-23T09:20:50.485Z,15.98
2019-05-23T09:23:21.394Z,16.00
2019-05-23T09:25:51.930Z,16.04
2019-05-23T09:28:22.426Z,16.04
2019-05-23T09:30:52.972Z,16.03
2019-05-23T09:35:59.770Z,16.30
2019-05-23T09:38:30.451Z,16.30
2019-05-23T09:41:01.173Z,16.31
2019-05-23T09:43:31.709Z,16.41
2019-05-23T09:46:02.267Z,16.58
2019-05-23T09:48:32.800Z,16.61
2019-05-23T09:51:03.291Z,16.56
2019-05-23T09:53:33.885Z,16.56
2019-05-23T09:56:04.496Z,16.78
2019-05-23T09:58:35.049Z,16.68
2019-05-23T10:01:05.816Z,16.91
2019-05-23T10:03:36.488Z,16.92
2019-05-23T10:06:08.040Z,17.06
2019-05-23T10:08:38.602Z,16.96
2019-05-23T10:11:09.078Z,17.00
2019-05-23T10:13:39.768Z,17.14
2019-05-23T10:16:11.099Z,17.05
2019-05-23T10:18:43.188Z,17.21
2019-05-23T10:21:13.805Z,17.25
2019-05-23T10:23:44.363Z,17.32
2019-05-23T10:26:15.157Z,17.28
2019-05-23T10:28:45.666Z,17.21
2019-05-23T10:31:16.189Z,17.25
2019-05-23T10:33:46.880Z,17.37
2019-05-23T10:36:17.578Z,17.55
2019-05-23T10:38:48.155Z,17.81
2019-05-23T10:41:18.792Z,17.98
2019-05-23T10:43:49.334Z,18.03
2019-05-23T10:46:20.044Z,18.05
2019-05-23T10:48:50.846Z,18.01
2019-05-23T10:51:21.813Z,18.04
2019-05-23T10:53:52.315Z,18.30
2019-05-23T10:56:22.902Z,18.30
2019-05-23T10:58:53.424Z,18.45
2019-05-23T11:01:24.101Z,18.58
2019-05-23T11:03:54.975Z,18.59
2019-05-23T11:06:26.704Z,18.72
2019-05-23T11:08:57.457Z,18.87
2019-05-23T11:11:28.341Z,18.73
2019-05-23T11:13:59.731Z,18.76
2019-05-23T11:16:30.807Z,18.82
2019-05-23T11:19:02.253Z,18.94
2019-05-23T11:21:32.764Z,19.34
2019-05-23T11:24:04.982Z,19.38
2019-05-23T11:26:35.879Z,19.75
2019-05-23T11:29:08.554Z,19.67
2019-05-23T11:31:39.935Z,19.56
2019-05-23T11:34:11.107Z,19.59
2019-05-23T11:36:41.703Z,19.23
2019-05-23T11:39:12.677Z,19.26
2019-05-23T11:41:43.255Z,19.48
2019-05-23T11:44:13.925Z,19.52
2019-05-23T11:46:44.673Z,19.84
2019-05-23T11:49:15.178Z,20.22
2019-05-23T11:51:46.224Z,19.87
2019-05-23T11:54:16.785Z,19.86
2019-05-23T11:56:47.732Z,19.68
2019-05-23T11:59:18.466Z,19.86
2019-05-23T12:02:00.466Z,19.84
2019-05-23T12:04:49.024Z,20.06
2019-05-23T12:07:26.696Z,20.44
2019-05-23T12:09:57.660Z,20.71
2019-05-23T12:12:28.612Z,21.31
2019-05-23T12:14:59.143Z,21.48
2019-05-23T12:17:32.216Z,22.06
2019-05-23T12:20:02.993Z,21.45
2019-05-23T12:22:34.611Z,21.30
2019-05-23T12:25:20.840Z,21.39
2019-05-23T12:27:39.293Z,22.80
2019-05-23T12:30:14.265Z,24.18
2019-05-23T12:32:44.973Z,24.41
2019-05-23T12:35:15.690Z,25.09
2019-05-23T12:37:46.259Z,24.39
2019-05-23T12:40:16.866Z,25.08
2019-05-23T12:42:47.378Z,23.94
2019-05-23T12:45:19.073Z,23.58
2019-05-23T12:48:00.769Z,24.27
2019-05-23T12:50:36.781Z,25.58
2019-05-23T12:53:10.188Z,26.37
2019-05-23T12:55:40.757Z,25.96
2019-05-23T12:58:11.408Z,24.18
2019-05-23T13:00:54.082Z,23.69
2019-05-23T13:03:24.800Z,24.51
2019-05-23T13:05:55.703Z,24.73
2019-05-23T13:08:26.271Z,24.80
2019-05-23T13:10:56.943Z,25.06
2019-05-23T13:13:27.949Z,25.22
2019-05-23T13:15:58.589Z,27.08
2019-05-23T13:18:29.275Z,26.30
2019-05-23T13:20:59.971Z,24.30
2019-05-23T13:23:31.438Z,23.20
2019-05-23T13:26:02.783Z,23.24
2019-05-23T13:28:33.485Z,22.31
2019-05-23T13:31:04.272Z,23.05
2019-05-23T13:33:35.321Z,23.55
2019-05-23T13:36:06.146Z,25.01
2019-05-23T13:38:36.866Z,24.56
2019-05-23T13:41:07.716Z,24.58
2019-05-23T13:43:38.287Z,24.76
2019-05-23T13:46:09.095Z,23.36
2019-05-23T13:48:39.733Z,22.38
2019-05-23T13:51:10.248Z,21.97
2019-05-23T13:53:40.883Z,23.24
2019-05-23T13:56:11.422Z,23.41
2019-05-23T13:58:42.007Z,22.64
2019-05-23T14:01:12.908Z,21.84
2019-05-23T14:03:44.137Z,21.82
2019-05-23T14:06:14.912Z,22.54
2019-05-23T14:08:45.541Z,22.64
2019-05-23T14:11:16.553Z,22.41
2019-05-23T14:13:47.292Z,22.07
2019-05-23T14:16:18.066Z,21.76
2019-05-23T14:18:48.661Z,21.63
2019-05-23T14:21:19.214Z,21.67
2019-05-23T14:23:49.809Z,21.70
2019-05-23T14:26:21.684Z,21.72
2019-05-23T14:28:52.271Z,22.04
2019-05-23T14:31:23.843Z,22.67
2019-05-23T14:33:57.603Z,23.65
2019-05-23T14:36:40.257Z,23.63
2019-05-23T14:39:17.045Z,24.10
2019-05-23T14:41:57.524Z,24.88
2019-05-23T14:44:28.186Z,25.44
2019-05-23T14:47:17.782Z,25.05
2019-05-23T14:49:57.217Z,24.70
2019-05-23T14:52:37.441Z,24.71
2019-05-23T14:55:10.875Z,24.44
2019-05-23T14:57:42.025Z,23.39
2019-05-23T15:00:12.680Z,23.68
2019-05-23T15:02:43.645Z,23.59
2019-05-23T15:05:14.396Z,24.71
2019-05-23T15:07:44.957Z,25.65
2019-05-23T15:10:16.924Z,27.31
2019-05-23T15:12:47.453Z,29.27
2019-05-23T15:15:18.335Z,30.50
2019-05-23T15:17:48.964Z,29.39
2019-05-23T15:20:19.595Z,29.30
2019-05-23T15:22:50.782Z,28.89
2019-05-23T15:25:21.413Z,29.26
2019-05-23T15:27:51.997Z,28.54
2019-05-23T15:30:22.990Z,27.11
2019-05-23T15:32:53.595Z,25.67
2019-05-23T15:35:25.179Z,24.85
2019-05-23T15:37:55.759Z,25.24
2019-05-23T15:40:26.459Z,25.72
2019-05-23T15:42:57.121Z,26.18
2019-05-23T15:45:27.710Z,26.59
2019-05-23T15:47:58.277Z,27.47
2019-05-23T15:53:42.562Z,27.36
2019-05-23T15:56:31.957Z,26.20
2019-05-23T15:59:25.071Z,24.57
2019-05-23T16:02:00.654Z,23.99
2019-05-23T16:04:31.626Z,23.66
2019-05-23T16:07:02.189Z,22.95
2019-05-23T16:09:32.856Z,22.82
2019-05-23T16:12:03.934Z,23.31
2019-05-23T16:14:34.531Z,23.30
2019-05-23T16:17:06.369Z,23.26
2019-05-23T16:19:36.936Z,22.95
2019-05-23T16:22:07.671Z,22.53
2019-05-23T16:24:38.221Z,22.56
2019-05-23T16:27:09.212Z,22.69
2019-05-23T16:29:40.882Z,22.92
2019-05-23T16:32:11.815Z,23.64
2019-05-23T16:34:42.582Z,23.79
2019-05-23T16:37:13.170Z,24.59
2019-05-23T16:39:48.325Z,24.41
2019-05-23T16:42:17.928Z,23.56
2019-05-23T16:44:49.500Z,23.95
2019-05-23T16:47:20.401Z,24.24
2019-05-23T16:49:51.115Z,24.36
2019-05-23T16:52:21.714Z,23.53
2019-05-23T16:54:54.072Z,23.14
2019-05-23T16:57:45.291Z,23.47
2019-05-23T17:00:34.612Z,23.72
2019-05-23T17:03:36.200Z,24.58
2019-05-23T17:06:13.407Z,24.54
2019-05-23T17:09:06.252Z,23.46
2019-05-23T17:11:52.562Z,23.42
2019-05-23T17:14:28.219Z,23.16
2019-05-23T17:17:36.453Z,22.48
2019-05-23T17:19:56.373Z,21.95
2019-05-23T17:22:40.994Z,21.72
2019-05-23T17:25:24.406Z,21.08
2019-05-23T17:28:01.278Z,21.02
2019-05-23T17:30:49.546Z,20.81
2019-05-23T17:33:20.134Z,20.72
2019-05-23T17:35:50.715Z,20.59
2019-05-23T17:38:24.445Z,20.59
2019-05-23T17:40:56.069Z,20.69
2019-05-23T17:43:31.601Z,20.79
2019-05-23T17:46:02.157Z,20.72
2019-05-23T17:48:32.647Z,20.49
2019-05-23T17:51:06.954Z,20.39
2019-05-23T17:53:37.449Z,20.27
2019-05-23T17:56:08.869Z,20.06
2019-05-23T17:58:41.971Z,19.95
2019-05-23T18:01:12.527Z,19.91
2019-05-23T18:03:43.114Z,19.70
2019-05-23T18:06:13.948Z,19.50
2019-05-23T18:08:44.546Z,19.58
2019-05-23T18:11:15.819Z,19.36
2019-05-23T18:13:46.375Z,19.24
2019-05-23T18:16:19.584Z,19.16
2019-05-23T18:18:50.845Z,19.07
2019-05-23T18:21:22.844Z,18.93
2019-05-23T18:23:54.056Z,18.83
2019-05-23T18:26:25.574Z,18.77
2019-05-23T18:28:56.075Z,18.67
2019-05-23T18:31:28.786Z,18.66
2019-05-23T18:33:59.307Z,18.64
2019-05-23T18:36:30.533Z,18.58
2019-05-23T18:39:01.789Z,18.68
2019-05-23T18:41:34.919Z,18.55
2019-05-23T18:44:06.711Z,18.43
2019-05-23T18:46:42.583Z,18.19
2019-05-23T18:49:13.317Z,17.93
2019-05-23T18:51:45.086Z,17.89
2019-05-23T18:54:15.953Z,17.78
2019-05-23T18:56:46.476Z,17.66
2019-05-23T18:59:17.957Z,17.56
2019-05-23T19:01:49.287Z,17.44
2019-05-23T19:04:19.772Z,17.36
2019-05-23T19:06:52.052Z,17.15
2019-05-23T19:09:22.697Z,17.01
2019-05-23T19:11:53.340Z,16.88
2019-05-23T19:14:23.929Z,16.60
2019-05-23T19:16:55.419Z,16.43
2019-05-23T19:19:26.067Z,16.28
2019-05-23T19:21:58.054Z,16.17
2019-05-23T19:24:29.666Z,16.04
2019-05-23T19:27:01.554Z,16.01
2019-05-23T19:29:33.553Z,15.78
2019-05-23T19:32:05.233Z,15.69
2019-05-23T19:34:36.125Z,15.43
2019-05-23T19:37:08.390Z,15.37
2019-05-23T19:39:39.558Z,15.18
2019-05-23T19:42:10.428Z,15.04
2019-05-23T19:44:40.985Z,14.93
2019-05-23T19:47:11.637Z,14.83
2019-05-23T19:49:42.220Z,14.75
2019-05-23T19:52:13.014Z,14.62
2019-05-23T19:54:43.870Z,14.53
2019-05-23T19:57:14.615Z,14.47
2019-05-23T19:59:45.213Z,14.32
2019-05-23T20:02:34.497Z,14.23
2019-05-23T20:05:14.923Z,14.23
2019-05-23T20:07:45.519Z,14.15
2019-05-23T20:10:17.733Z,14.05
2019-05-23T20:12:48.666Z,13.98
2019-05-23T20:15:19.859Z,13.83
2019-05-23T20:17:52.115Z,13.82
2019-05-23T20:20:23.450Z,13.76
2019-05-23T20:22:53.958Z,13.68
2019-05-23T20:25:25.983Z,13.60
2019-05-23T20:27:56.461Z,13.48
2019-05-23T20:30:58.784Z,13.38
2019-05-23T20:33:29.632Z,13.28
2019-05-23T20:36:01.950Z,13.19
2019-05-23T20:38:32.458Z,13.09
2019-05-23T20:41:03.021Z,13.07
2019-05-23T20:43:33.490Z,12.95
2019-05-23T20:46:04.016Z,12.93
2019-05-23T20:48:34.732Z,12.89
2019-05-23T20:51:05.216Z,12.88
2019-05-23T20:53:35.946Z,12.86
2019-05-23T20:56:07.256Z,12.81
2019-05-23T20:58:37.824Z,12.79
2019-05-23T21:01:16.366Z,12.79
2019-05-23T21:03:48.136Z,12.71
2019-05-23T21:06:18.814Z,12.70
2019-05-23T21:08:49.358Z,12.61
2019-05-23T21:11:19.868Z,12.56
2019-05-23T21:13:50.370Z,12.54
2019-05-23T21:16:20.923Z,12.48
2019-05-23T21:18:51.560Z,12.41
2019-05-23T21:21:22.368Z,12.36
2019-05-23T21:23:56.791Z,12.32
2019-05-23T21:26:26.623Z,12.29
2019-05-23T21:28:57.157Z,12.28
2019-05-23T21:31:28.672Z,12.29
2019-05-23T21:33:59.280Z,12.28
2019-05-23T21:36:30.353Z,12.28
2019-05-23T21:39:01.743Z,12.26
2019-05-23T21:41:32.885Z,12.78
2019-05-23T21:44:03.821Z,13.28
2019-05-23T21:46:35.196Z,13.58
2019-05-23T21:49:05.868Z,13.80
2019-05-23T21:51:36.346Z,13.74
2019-05-23T21:54:06.928Z,13.62
2019-05-23T21:56:37.494Z,13.48
2019-05-23T21:59:08.088Z,13.36
2019-05-23T22:01:57.009Z,13.16
2019-05-23T22:04:49.627Z,13.05
2019-05-23T22:07:20.342Z,12.85
2019-05-23T22:09:50.940Z,12.55
2019-05-23T22:12:21.727Z,12.27
2019-05-23T22:14:52.698Z,12.29
2019-05-23T22:17:24.857Z,12.24
2019-05-23T22:19:55.457Z,12.21
2019-05-23T22:22:26.052Z,12.14
2019-05-23T22:24:56.684Z,12.16
2019-05-23T22:27:27.224Z,12.15
2019-05-23T22:29:57.707Z,12.00
2019-05-23T22:32:29.707Z,11.77
2019-05-23T22:35:07.086Z,11.66
2019-05-23T22:37:37.636Z,11.67
2019-05-23T22:40:08.445Z,11.66
2019-05-23T22:42:39.356Z,11.62
2019-05-23T22:45:15.106Z,11.61
2019-05-23T22:47:45.736Z,11.59
2019-05-23T22:50:16.227Z,11.46
2019-05-23T22:52:46.834Z,11.29
2019-05-23T22:55:17.394Z,11.27
2019-05-23T22:57:48.039Z,11.19
2019-05-23T23:00:28.732Z,11.16
2019-05-23T23:02:59.350Z,11.30
2019-05-23T23:05:29.817Z,11.10
2019-05-23T23:08:00.534Z,11.10
2019-05-23T23:10:31.435Z,11.11
2019-05-23T23:13:02.026Z,11.17
2019-05-23T23:15:33.177Z,10.91
2019-05-23T23:18:03.609Z,10.90
2019-05-23T23:20:34.504Z,10.89
2019-05-23T23:23:05.066Z,10.85
2019-05-23T23:25:35.649Z,10.89
2019-05-23T23:28:06.486Z,11.00
2019-05-23T23:30:38.781Z,11.04
2019-05-23T23:33:09.307Z,11.08
2019-05-23T23:35:39.786Z,10.99
2019-05-23T23:38:10.412Z,10.97
2019-05-23T23:40:40.901Z,10.91
2019-05-23T23:43:11.614Z,10.87
2019-05-23T23:46:00.406Z,10.88
2019-05-23T23:48:48.806Z,10.82
2019-05-23T23:51:36.848Z,10.81
2019-05-23T23:54:25.152Z,10.76
2019-05-23T23:57:13.491Z,10.65
2019-05-23T23:59:42.988Z,10.55
